createdAt,value
2023-03-29T00:01:42.008Z,4.95
2023-03-29T00:04:10.159Z,4.43
2023-03-29T00:06:37.024Z,6.90
2023-03-29T00:09:05.792Z,6.47
2023-03-29T00:11:32.818Z,6.03
2023-03-29T00:13:59.333Z,4.78
2023-03-29T00:16:25.953Z,5.95
2023-03-29T00:18:52.490Z,5.55
2023-03-29T00:21:19.032Z,4.10
2023-03-29T00:23:45.728Z,5.10
2023-03-29T00:26:12.399Z,4.60
2023-03-29T00:28:38.892Z,4.40
2023-03-29T00:31:07.475Z,3.20
2023-03-29T00:33:34.177Z,4.95
2023-03-29T00:36:01.760Z,3.85
2023-03-29T00:38:28.459Z,6.40
2023-03-29T00:40:55.075Z,5.47
2023-03-29T00:43:21.752Z,5.22
2023-03-29T00:45:48.390Z,4.30
2023-03-29T00:48:24.429Z,3.85
2023-03-29T00:50:53.846Z,3.17
2023-03-29T00:53:26.869Z,5.03
2023-03-29T00:56:11.722Z,3.80
2023-03-29T00:58:48.205Z,2.90
2023-03-29T01:01:19.428Z,3.70
2023-03-29T01:03:54.381Z,2.25
2023-03-29T01:06:24.831Z,4.32
2023-03-29T01:08:55.670Z,3.75
2023-03-29T01:11:29.080Z,3.35
2023-03-29T01:14:06.731Z,3.58
2023-03-29T01:16:36.226Z,5.70
2023-03-29T01:19:05.288Z,2.92
2023-03-29T01:21:41.148Z,4.10
2023-03-29T01:24:55.049Z,3.28
2023-03-29T01:27:36.222Z,4.57
2023-03-29T01:30:12.029Z,4.22
2023-03-29T01:32:46.343Z,4.80
2023-03-29T01:35:21.209Z,2.88
2023-03-29T01:38:07.343Z,4.43
2023-03-29T01:40:34.377Z,3.20
2023-03-29T01:43:21.399Z,2.78
2023-03-29T01:45:55.407Z,3.00
2023-03-29T01:48:31.026Z,3.28
2023-03-29T01:51:12.738Z,2.75
2023-03-29T01:54:01.282Z,2.45
2023-03-29T01:56:30.980Z,2.45
2023-03-29T01:59:02.108Z,2.40
2023-03-29T02:01:34.383Z,3.28
2023-03-29T02:04:06.679Z,3.65
2023-03-29T02:06:35.976Z,3.42
2023-03-29T02:09:04.823Z,2.10
2023-03-29T02:11:31.365Z,3.13
2023-03-29T02:13:57.964Z,2.35
2023-03-29T02:16:24.556Z,3.50
2023-03-29T02:18:52.877Z,2.25
2023-03-29T02:21:29.902Z,2.58
2023-03-29T02:24:02.065Z,4.00
2023-03-29T02:26:29.223Z,2.47
2023-03-29T02:28:56.072Z,3.60
2023-03-29T02:31:29.366Z,5.43
2023-03-29T02:34:03.325Z,2.15
2023-03-29T02:36:41.920Z,3.75
2023-03-29T02:39:13.888Z,2.17
2023-03-29T02:41:43.240Z,2.58
2023-03-29T02:44:16.636Z,1.58
2023-03-29T02:46:43.996Z,2.38
2023-03-29T02:49:11.553Z,3.05
2023-03-29T02:51:38.570Z,2.55
2023-03-29T02:54:12.712Z,2.80
2023-03-29T02:57:00.608Z,3.58
2023-03-29T02:59:29.902Z,3.85
2023-03-29T03:01:56.623Z,2.47
2023-03-29T03:04:23.179Z,2.63
2023-03-29T03:06:49.773Z,2.60
2023-03-29T03:09:16.302Z,2.35
2023-03-29T03:11:43.115Z,3.40
2023-03-29T03:14:10.130Z,3.38
2023-03-29T03:16:37.212Z,1.95
2023-03-29T03:19:04.270Z,3.17
2023-03-29T03:21:31.043Z,2.50
2023-03-29T03:23:57.608Z,2.58
2023-03-29T03:26:30.192Z,2.15
2023-03-29T03:28:57.274Z,1.77
2023-03-29T03:31:23.840Z,3.50
2023-03-29T03:33:50.456Z,2.67
2023-03-29T03:36:16.943Z,3.60
2023-03-29T03:38:44.088Z,4.65
2023-03-29T03:41:10.758Z,2.42
2023-03-29T03:43:37.476Z,2.67
2023-03-29T03:46:04.146Z,3.45
2023-03-29T03:48:30.675Z,1.98
2023-03-29T03:50:59.126Z,2.35
2023-03-29T03:53:27.319Z,2.10
2023-03-29T03:55:56.057Z,1.65
2023-03-29T03:58:23.447Z,1.92
2023-03-29T04:00:51.387Z,2.03
2023-03-29T04:03:18.759Z,2.90
2023-03-29T04:05:46.292Z,2.17
2023-03-29T04:08:13.646Z,2.17
2023-03-29T04:10:40.310Z,3.25
2023-03-29T04:13:07.099Z,4.50
2023-03-29T04:15:38.657Z,1.70
2023-03-29T04:18:07.298Z,2.78
2023-03-29T04:20:34.624Z,1.55
2023-03-29T04:23:01.684Z,1.85
2023-03-29T04:25:28.440Z,2.20
2023-03-29T04:27:55.170Z,1.98
2023-03-29T04:30:21.885Z,2.33
2023-03-29T04:32:48.715Z,2.90
2023-03-29T04:35:15.416Z,4.10
2023-03-29T04:37:42.029Z,2.58
2023-03-29T04:40:09.904Z,4.55
2023-03-29T04:42:37.315Z,3.95
2023-03-29T04:45:04.107Z,2.42
2023-03-29T04:47:31.292Z,3.67
2023-03-29T04:49:57.975Z,3.25
2023-03-29T04:52:24.719Z,2.60
2023-03-29T04:54:51.254Z,1.75
2023-03-29T04:57:17.828Z,2.85
2023-03-29T04:59:44.383Z,3.58
2023-03-29T05:02:11.133Z,3.30
2023-03-29T05:04:37.893Z,3.40
2023-03-29T05:07:04.488Z,4.47
2023-03-29T05:09:32.565Z,4.47
2023-03-29T05:12:01.562Z,3.10
2023-03-29T05:14:28.132Z,4.47
2023-03-29T05:16:54.661Z,3.00
2023-03-29T05:19:24.295Z,3.42
2023-03-29T05:21:51.107Z,4.10
2023-03-29T05:24:17.779Z,3.53
2023-03-29T05:26:44.730Z,3.83
2023-03-29T05:29:12.340Z,3.47
2023-03-29T05:31:39.145Z,2.60
2023-03-29T05:34:07.052Z,3.28
2023-03-29T05:36:33.687Z,4.18
2023-03-29T05:39:00.166Z,4.57
2023-03-29T05:41:26.742Z,3.78
2023-03-29T05:43:53.289Z,3.10
2023-03-29T05:46:19.945Z,3.95
2023-03-29T05:48:47.288Z,3.80
2023-03-29T05:51:13.922Z,4.30
2023-03-29T05:53:40.407Z,3.70
2023-03-29T05:56:08.835Z,4.55
2023-03-29T05:58:36.285Z,4.25
2023-03-29T06:01:04.711Z,2.75
2023-03-29T06:03:31.541Z,6.63
2023-03-29T06:06:02.376Z,5.00
2023-03-29T06:08:29.320Z,4.10
2023-03-29T06:11:05.807Z,4.18
2023-03-29T06:13:37.177Z,2.85
2023-03-29T06:16:04.353Z,4.13
2023-03-29T06:18:31.099Z,4.28
2023-03-29T06:20:57.727Z,3.90
2023-03-29T06:23:24.900Z,3.97
2023-03-29T06:25:51.628Z,3.47
2023-03-29T06:28:19.227Z,4.72
2023-03-29T06:30:46.221Z,4.15
2023-03-29T06:33:14.243Z,3.33
2023-03-29T06:35:45.891Z,4.13
2023-03-29T06:38:12.502Z,3.40
2023-03-29T06:40:39.162Z,3.88
2023-03-29T06:43:06.890Z,3.63
2023-03-29T06:45:36.108Z,4.43
2023-03-29T06:48:03.701Z,4.53
2023-03-29T06:50:31.132Z,3.22
2023-03-29T06:52:57.842Z,3.28
2023-03-29T06:55:25.957Z,3.28
2023-03-29T06:57:54.230Z,3.30
2023-03-29T07:00:28.087Z,4.78
2023-03-29T07:02:56.558Z,5.90
2023-03-29T07:05:23.948Z,4.78
2023-03-29T07:07:56.556Z,5.07
2023-03-29T07:10:26.420Z,6.38
2023-03-29T07:12:52.957Z,5.22
2023-03-29T07:15:21.491Z,2.72
2023-03-29T07:17:49.333Z,4.95
2023-03-29T07:20:16.613Z,4.35
2023-03-29T07:22:44.878Z,2.60
2023-03-29T07:25:12.689Z,8.70
2023-03-29T07:27:41.786Z,3.95
2023-03-29T07:30:11.209Z,3.17
2023-03-29T07:32:39.191Z,3.53
2023-03-29T07:35:07.024Z,4.13
2023-03-29T07:37:36.510Z,3.92
2023-03-29T07:40:18.709Z,4.82
2023-03-29T07:42:46.621Z,4.30
2023-03-29T07:45:16.340Z,5.05
2023-03-29T07:47:47.377Z,5.57
2023-03-29T07:50:14.622Z,3.35
2023-03-29T07:52:41.299Z,4.85
2023-03-29T07:55:08.777Z,4.47
2023-03-29T07:57:35.739Z,3.83
2023-03-29T08:00:16.348Z,4.95
2023-03-29T08:02:44.417Z,5.05
2023-03-29T08:05:18.983Z,5.72
2023-03-29T08:07:50.494Z,4.53
2023-03-29T08:10:19.302Z,5.20
2023-03-29T08:12:47.478Z,5.05
2023-03-29T08:15:15.283Z,3.67
2023-03-29T08:17:42.464Z,4.88
2023-03-29T08:20:19.155Z,4.28
2023-03-29T08:22:46.268Z,4.45
2023-03-29T08:25:12.851Z,6.18
2023-03-29T08:27:39.727Z,7.25
2023-03-29T08:30:09.404Z,3.92
2023-03-29T08:32:37.151Z,4.45
2023-03-29T08:35:04.890Z,5.40
2023-03-29T08:37:32.625Z,5.70
2023-03-29T08:39:59.196Z,4.82
2023-03-29T08:42:49.247Z,4.82
2023-03-29T08:45:23.468Z,3.35
2023-03-29T08:48:23.386Z,4.70
2023-03-29T08:50:58.886Z,5.55
2023-03-29T08:53:34.659Z,5.63
2023-03-29T08:56:08.563Z,4.55
2023-03-29T08:58:37.644Z,7.50
2023-03-29T09:01:08.670Z,4.57
2023-03-29T09:03:42.805Z,8.18
2023-03-29T09:06:12.618Z,4.00
2023-03-29T09:08:48.140Z,4.55
2023-03-29T09:11:24.366Z,6.57
2023-03-29T09:14:05.837Z,4.68
2023-03-29T09:16:52.655Z,5.85
2023-03-29T09:19:37.388Z,3.88
2023-03-29T09:22:12.060Z,6.30
2023-03-29T09:24:53.996Z,5.85
2023-03-29T09:27:26.613Z,5.70
2023-03-29T09:30:12.430Z,6.22
2023-03-29T09:33:07.982Z,6.15
2023-03-29T09:35:43.761Z,4.55
2023-03-29T09:38:13.966Z,6.72
2023-03-29T09:40:50.018Z,6.30
2023-03-29T09:43:29.357Z,7.60
2023-03-29T09:45:58.785Z,6.10
2023-03-29T09:48:27.081Z,6.45
2023-03-29T09:50:54.183Z,4.13
2023-03-29T09:53:21.631Z,5.03
2023-03-29T09:55:50.596Z,5.90
2023-03-29T09:58:24.568Z,5.05
2023-03-29T10:00:51.402Z,6.15
2023-03-29T10:03:27.238Z,6.18
2023-03-29T10:05:57.369Z,6.15
2023-03-29T10:08:28.340Z,5.40
2023-03-29T10:10:57.771Z,4.80
2023-03-29T10:13:32.991Z,4.60
2023-03-29T10:16:09.202Z,5.43
2023-03-29T10:18:43.218Z,6.45
2023-03-29T10:21:16.868Z,6.57
2023-03-29T10:23:44.291Z,6.13
2023-03-29T10:26:24.698Z,10.55
2023-03-29T10:28:54.746Z,4.93
2023-03-29T10:31:22.637Z,4.63
2023-03-29T10:33:57.372Z,5.75
2023-03-29T10:36:26.910Z,4.40
2023-03-29T10:38:56.643Z,6.32
2023-03-29T10:41:25.321Z,6.03
2023-03-29T10:43:52.051Z,7.78
2023-03-29T10:46:21.279Z,7.65
2023-03-29T10:48:57.385Z,6.38
2023-03-29T10:51:25.343Z,6.15
2023-03-29T10:53:51.842Z,5.65
2023-03-29T10:56:30.171Z,7.22
2023-03-29T10:59:24.488Z,5.78
2023-03-29T11:04:33.409Z,5.47
2023-03-29T11:07:22.601Z,4.43
2023-03-29T11:10:15.603Z,4.75
2023-03-29T11:13:08.465Z,3.83
2023-03-29T11:15:57.639Z,4.03
2023-03-29T11:18:39.371Z,5.75
2023-03-29T11:21:35.328Z,4.55
2023-03-29T11:24:24.195Z,6.07
2023-03-29T11:26:53.518Z,5.47
2023-03-29T11:29:28.124Z,3.83
2023-03-29T11:32:30.236Z,4.45
2023-03-29T11:35:19.213Z,4.07
2023-03-29T11:37:50.636Z,6.65
2023-03-29T11:40:28.649Z,2.90
2023-03-29T11:42:58.258Z,6.38
2023-03-29T11:45:39.916Z,5.50
2023-03-29T11:48:14.042Z,6.15
2023-03-29T11:50:48.562Z,6.10
2023-03-29T11:53:23.210Z,3.75
2023-03-29T11:55:51.321Z,5.45
2023-03-29T11:58:32.182Z,4.45
2023-03-29T12:01:07.489Z,4.18
2023-03-29T12:03:53.490Z,4.10
2023-03-29T12:06:36.010Z,4.68
2023-03-29T12:09:24.197Z,3.47
2023-03-29T12:12:05.018Z,4.43
2023-03-29T12:14:49.229Z,7.43
2023-03-29T12:17:24.689Z,4.75
2023-03-29T12:20:06.557Z,6.60
2023-03-29T12:22:33.717Z,4.65
2023-03-29T12:25:03.279Z,5.53
2023-03-29T12:28:03.299Z,3.28
2023-03-29T12:30:38.396Z,3.60
2023-03-29T12:33:23.511Z,4.03
2023-03-29T12:36:35.031Z,4.45
2023-03-29T12:39:02.104Z,5.35
2023-03-29T12:41:28.791Z,4.35
2023-03-29T12:44:01.975Z,5.35
2023-03-29T12:46:33.484Z,4.85
2023-03-29T12:49:07.663Z,4.75
2023-03-29T12:51:36.898Z,3.45
2023-03-29T12:54:17.303Z,4.93
2023-03-29T12:56:56.271Z,4.25
2023-03-29T12:59:22.799Z,4.80
2023-03-29T13:02:14.961Z,4.10
2023-03-29T13:04:58.083Z,4.97
2023-03-29T13:07:27.503Z,5.43
2023-03-29T13:09:56.082Z,4.72
2023-03-29T13:12:34.527Z,4.97
2023-03-29T13:15:05.347Z,5.15
2023-03-29T13:17:40.921Z,4.80
2023-03-29T13:20:31.232Z,5.13
2023-03-29T13:22:57.966Z,5.22
2023-03-29T13:26:07.597Z,4.30
2023-03-29T13:28:49.728Z,6.60
2023-03-29T13:31:36.162Z,3.50
2023-03-29T13:34:34.600Z,3.95
2023-03-29T13:37:36.658Z,6.55
2023-03-29T13:40:26.560Z,6.43
2023-03-29T13:43:08.035Z,5.85
2023-03-29T13:45:36.298Z,6.70
2023-03-29T13:48:21.629Z,5.00
2023-03-29T13:51:08.319Z,5.80
2023-03-29T13:53:46.093Z,5.47
2023-03-29T13:56:19.852Z,7.10
2023-03-29T14:01:28.248Z,7.05
2023-03-29T14:03:55.950Z,6.15
2023-03-29T14:06:29.906Z,9.90
2023-03-29T14:08:56.969Z,6.22
2023-03-29T14:11:26.629Z,4.72
2023-03-29T14:13:55.845Z,5.70
2023-03-29T14:16:23.533Z,6.65
2023-03-29T14:18:52.242Z,7.63
2023-03-29T14:21:20.977Z,6.55
2023-03-29T14:23:55.674Z,7.82
2023-03-29T14:26:24.188Z,8.48
2023-03-29T14:28:56.759Z,7.10
2023-03-29T14:31:26.959Z,9.65
2023-03-29T14:33:58.465Z,8.85
2023-03-29T14:36:27.141Z,9.27
2023-03-29T14:38:59.402Z,9.32
2023-03-29T14:41:34.804Z,5.60
2023-03-29T14:44:02.988Z,4.50
2023-03-29T14:46:30.084Z,6.85
2023-03-29T14:48:57.193Z,6.10
2023-03-29T14:51:30.288Z,9.45
2023-03-29T14:54:03.895Z,6.93
2023-03-29T14:56:32.784Z,6.32
2023-03-29T14:59:04.590Z,4.88
2023-03-29T15:01:31.357Z,5.05
2023-03-29T15:04:08.951Z,6.07
2023-03-29T15:06:41.082Z,10.77
2023-03-29T15:09:17.136Z,5.82
2023-03-29T15:11:51.501Z,10.90
2023-03-29T15:14:19.914Z,6.15
2023-03-29T15:16:48.251Z,9.82
2023-03-29T15:19:18.366Z,14.85
2023-03-29T15:21:47.774Z,19.48
2023-03-29T15:24:29.269Z,15.35
2023-03-29T15:27:03.253Z,12.18
2023-03-29T15:29:41.737Z,12.18
2023-03-29T15:32:10.034Z,14.93
2023-03-29T15:34:38.344Z,16.10
2023-03-29T15:37:04.942Z,14.98
2023-03-29T15:39:32.164Z,16.13
2023-03-29T15:41:58.805Z,17.27
2023-03-29T15:44:32.040Z,13.82
2023-03-29T15:46:59.889Z,15.30
2023-03-29T15:49:26.682Z,16.00
2023-03-29T15:51:54.604Z,12.02
2023-03-29T15:54:22.464Z,15.70
2023-03-29T15:56:53.539Z,12.38
2023-03-29T15:59:20.421Z,12.13
2023-03-29T16:01:47.544Z,12.13
2023-03-29T16:04:19.055Z,13.00
2023-03-29T16:06:52.815Z,13.25
2023-03-29T16:09:20.439Z,11.32
2023-03-29T16:11:47.754Z,11.85
2023-03-29T16:14:20.452Z,12.77
2023-03-29T16:16:47.184Z,11.55
2023-03-29T16:19:13.785Z,13.50
2023-03-29T16:21:40.672Z,13.57
2023-03-29T16:24:15.916Z,14.95
2023-03-29T16:26:43.125Z,14.68
2023-03-29T16:29:09.731Z,16.67
2023-03-29T16:31:36.426Z,13.93
2023-03-29T16:34:04.297Z,16.25
2023-03-29T16:36:33.052Z,16.15
2023-03-29T16:39:00.099Z,17.42
2023-03-29T16:41:27.044Z,14.48
2023-03-29T16:43:53.629Z,14.05
2023-03-29T16:46:20.814Z,14.10
2023-03-29T16:48:48.831Z,16.05
2023-03-29T16:51:15.620Z,15.35
2023-03-29T16:53:42.996Z,15.50
2023-03-29T16:56:10.858Z,15.13
2023-03-29T16:58:39.350Z,14.32
2023-03-29T17:01:17.130Z,15.20
2023-03-29T17:03:44.089Z,14.43
2023-03-29T17:06:11.641Z,13.40
2023-03-29T17:08:39.321Z,17.15
2023-03-29T17:11:07.059Z,16.10
2023-03-29T17:13:33.589Z,16.52
2023-03-29T17:16:00.503Z,16.38
2023-03-29T17:18:27.734Z,16.27
2023-03-29T17:20:58.354Z,18.10
2023-03-29T17:23:25.858Z,16.38
2023-03-29T17:25:54.860Z,15.45
2023-03-29T17:28:22.018Z,16.38
2023-03-29T17:30:48.644Z,15.40
2023-03-29T17:33:15.373Z,15.02
2023-03-29T17:35:43.751Z,20.73
2023-03-29T17:38:11.686Z,17.05
2023-03-29T17:40:38.515Z,13.02
2023-03-29T17:43:05.615Z,13.63
2023-03-29T17:45:32.309Z,15.32
2023-03-29T17:47:58.850Z,21.08
2023-03-29T17:50:25.622Z,16.55
2023-03-29T17:52:52.275Z,17.20
2023-03-29T17:55:20.916Z,18.00
2023-03-29T17:57:48.973Z,14.88
2023-03-29T18:00:16.189Z,15.82
2023-03-29T18:02:43.287Z,18.35
2023-03-29T18:05:10.125Z,19.40
2023-03-29T18:07:37.287Z,17.80
2023-03-29T18:10:04.611Z,17.92
2023-03-29T18:12:31.210Z,16.15
2023-03-29T18:14:57.845Z,16.27
2023-03-29T18:17:24.705Z,18.52
2023-03-29T18:19:51.513Z,18.05
2023-03-29T18:22:19.675Z,17.85
2023-03-29T18:24:46.600Z,16.23
2023-03-29T18:27:15.577Z,15.57
2023-03-29T18:29:42.190Z,16.98
2023-03-29T18:32:08.768Z,16.98
2023-03-29T18:34:35.389Z,17.35
2023-03-29T18:37:02.444Z,15.75
2023-03-29T18:39:29.081Z,15.23
2023-03-29T18:41:55.871Z,16.40
2023-03-29T18:44:22.802Z,15.00
2023-03-29T18:46:49.603Z,15.00
2023-03-29T18:49:16.440Z,13.85
2023-03-29T18:51:42.949Z,15.40
2023-03-29T18:54:09.565Z,16.45
2023-03-29T18:56:36.093Z,12.93
2023-03-29T18:59:06.083Z,13.20
2023-03-29T19:01:33.533Z,15.52
2023-03-29T19:04:00.652Z,14.18
2023-03-29T19:06:27.318Z,13.25
2023-03-29T19:08:55.298Z,11.00
2023-03-29T19:11:22.979Z,13.27
2023-03-29T19:13:50.679Z,12.90
2023-03-29T19:16:17.577Z,12.02
2023-03-29T19:18:44.211Z,11.68
2023-03-29T19:21:10.937Z,12.55
2023-03-29T19:23:37.538Z,10.85
2023-03-29T19:26:05.433Z,11.15
2023-03-29T19:28:33.637Z,10.85
2023-03-29T19:31:01.878Z,10.15
2023-03-29T19:33:29.356Z,12.25
2023-03-29T19:35:56.367Z,12.32
2023-03-29T19:38:22.989Z,8.95
2023-03-29T19:40:51.566Z,10.60
2023-03-29T19:43:19.162Z,10.27
2023-03-29T19:45:47.669Z,13.00
2023-03-29T19:48:21.842Z,13.60
2023-03-29T19:50:50.117Z,11.13
2023-03-29T19:53:16.868Z,10.70
2023-03-29T19:55:45.318Z,11.40
2023-03-29T19:58:12.589Z,11.25
2023-03-29T20:00:39.926Z,9.07
2023-03-29T20:03:10.553Z,11.68
2023-03-29T20:05:38.699Z,9.68
2023-03-29T20:08:06.414Z,8.43
2023-03-29T20:10:33.660Z,9.63
2023-03-29T20:13:00.217Z,9.32
2023-03-29T20:15:26.918Z,9.30
2023-03-29T20:17:57.025Z,8.07
2023-03-29T20:20:25.566Z,7.97
2023-03-29T20:22:58.329Z,8.43
2023-03-29T20:25:25.777Z,9.18
2023-03-29T20:27:53.080Z,10.45
2023-03-29T20:30:20.099Z,8.25
2023-03-29T20:32:46.748Z,8.45
2023-03-29T20:35:13.325Z,9.45
2023-03-29T20:37:39.840Z,8.63
2023-03-29T20:40:08.219Z,9.63
2023-03-29T20:42:36.683Z,7.75
2023-03-29T20:45:03.776Z,7.07
2023-03-29T20:47:30.321Z,9.73
2023-03-29T20:49:57.062Z,7.65
2023-03-29T20:52:24.759Z,7.57
2023-03-29T20:54:51.351Z,8.15
2023-03-29T20:57:20.781Z,8.45
2023-03-29T20:59:49.101Z,8.82
2023-03-29T21:02:21.767Z,7.72
2023-03-29T21:04:53.238Z,8.02
2023-03-29T21:07:21.328Z,10.82
2023-03-29T21:09:49.819Z,8.73
2023-03-29T21:12:16.750Z,7.63
2023-03-29T21:14:43.559Z,7.68
2023-03-29T21:17:10.288Z,7.05
2023-03-29T21:19:39.086Z,9.25
2023-03-29T21:22:05.899Z,8.63
2023-03-29T21:24:33.575Z,6.13
2023-03-29T21:27:00.537Z,5.65
2023-03-29T21:29:27.243Z,7.60
2023-03-29T21:31:54.035Z,7.22
2023-03-29T21:34:20.970Z,7.03
2023-03-29T21:36:47.616Z,7.18
2023-03-29T21:39:14.299Z,5.88
2023-03-29T21:41:41.069Z,8.10
2023-03-29T21:44:07.595Z,7.47
2023-03-29T21:46:34.276Z,5.55
2023-03-29T21:49:00.850Z,7.22
2023-03-29T21:51:27.381Z,5.70
2023-03-29T21:53:53.926Z,7.10
2023-03-29T21:56:20.466Z,6.47
2023-03-29T21:58:47.005Z,7.10
2023-03-29T22:01:13.560Z,7.63
2023-03-29T22:03:40.059Z,8.10
2023-03-29T22:06:09.439Z,6.43
2023-03-29T22:08:38.855Z,6.82
2023-03-29T22:11:11.040Z,5.55
2023-03-29T22:13:37.912Z,7.15
2023-03-29T22:16:05.455Z,8.68
2023-03-29T22:18:42.370Z,6.82
2023-03-29T22:21:23.663Z,6.70
2023-03-29T22:23:52.662Z,6.63
2023-03-29T22:26:21.628Z,6.13
2023-03-29T22:28:48.173Z,6.55
2023-03-29T22:31:16.705Z,6.22
2023-03-29T22:33:44.174Z,5.88
2023-03-29T22:36:17.267Z,7.72
2023-03-29T22:38:45.111Z,8.13
2023-03-29T22:41:12.736Z,4.85
2023-03-29T22:43:39.498Z,8.93
2023-03-29T22:46:07.594Z,7.60
2023-03-29T22:48:34.435Z,7.05
2023-03-29T22:51:01.832Z,10.50
2023-03-29T22:53:28.971Z,7.43
2023-03-29T22:55:55.880Z,6.72
2023-03-29T22:58:22.541Z,6.20
2023-03-29T23:00:49.771Z,4.57
2023-03-29T23:03:16.632Z,4.30
2023-03-29T23:05:53.047Z,7.57
2023-03-29T23:08:19.953Z,5.88
2023-03-29T23:10:46.953Z,6.57
2023-03-29T23:13:15.687Z,4.57
2023-03-29T23:15:45.599Z,5.50
2023-03-29T23:18:13.096Z,5.47
2023-03-29T23:20:40.734Z,3.90
2023-03-29T23:23:08.463Z,4.75
2023-03-29T23:25:35.332Z,7.68
2023-03-29T23:28:02.376Z,6.18
2023-03-29T23:30:29.866Z,5.45
2023-03-29T23:32:58.032Z,6.72
2023-03-29T23:35:24.753Z,6.25
2023-03-29T23:37:51.324Z,4.60
2023-03-29T23:40:17.862Z,4.60
2023-03-29T23:42:46.436Z,6.13
2023-03-29T23:45:16.585Z,5.32
2023-03-29T23:47:44.051Z,9.13
2023-03-29T23:50:16.782Z,6.28
2023-03-29T23:52:43.320Z,7.93
2023-03-29T23:55:14.337Z,4.25
2023-03-29T23:57:41.287Z,5.05
